Time;durP1;ratioP1;P1;durP2;ratioP2;P2;SDS_P1;SDS_P2;PMS_P1;PMS_P2;Temp;Humidity;BMP_temperature;BMP_pressure;BME280_temperature;BME280_humidity;BME280_pressure;Samples;Min_cycle;Max_cycle;Signal;HPM_P1;HPM_P2
2023/08/22 00:01:30;;;;;;;8.02;5.20;;;18.50;99.90;;;;;;5072540;28;20490;-60
2023/08/22 00:03:56;;;;;;;5.65;4.25;;;18.50;99.90;;;;;;5072670;28;20037;-59
2023/08/22 00:06:23;;;;;;;8.38;4.18;;;18.50;99.90;;;;;;5071001;28;20502;-60
2023/08/22 00:08:49;;;;;;;6.63;4.07;;;18.50;99.90;;;;;;5072250;28;20037;-59
2023/08/22 00:11:15;;;;;;;6.40;3.83;;;18.60;99.90;;;;;;5072062;28;20453;-60
2023/08/22 00:13:40;;;;;;;8.73;5.07;;;18.60;99.90;;;;;;5071930;28;20044;-60
2023/08/22 00:16:06;;;;;;;16.30;5.18;;;18.50;99.90;;;;;;5072360;28;20044;-60
2023/08/22 00:18:32;;;;;;;15.00;6.00;;;18.50;99.90;;;;;;5071905;28;20387;-60
2023/08/22 00:20:57;;;;;;;9.13;5.90;;;18.50;99.90;;;;;;5071756;28;20043;-60
2023/08/22 00:23:23;;;;;;;9.90;6.38;;;18.50;99.90;;;;;;5071746;28;20112;-60
2023/08/22 00:25:49;;;;;;;10.60;7.15;;;18.50;99.90;;;;;;5071617;28;20116;-60
2023/08/22 00:28:14;;;;;;;10.75;6.07;;;18.40;99.90;;;;;;5071371;28;20106;-60
2023/08/22 00:30:40;;;;;;;10.40;6.70;;;18.60;99.90;;;;;;5070820;28;20131;-60
2023/08/22 00:33:06;;;;;;;10.52;6.90;;;18.50;99.90;;;;;;5071990;28;20055;-60
2023/08/22 00:35:32;;;;;;;11.23;6.97;;;18.50;99.90;;;;;;5068209;28;20810;-60
2023/08/22 00:37:57;;;;;;;12.30;7.60;;;18.60;99.90;;;;;;5051288;28;20559;-60
2023/08/22 00:40:23;;;;;;;9.40;7.35;;;18.60;99.90;;;;;;5071318;28;20560;-60
2023/08/22 00:42:50;;;;;;;9.98;6.75;;;18.60;99.90;;;;;;5071825;28;20368;-60
2023/08/22 00:45:16;;;;;;;10.85;6.93;;;18.70;99.90;;;;;;5071565;28;20513;-60
2023/08/22 00:47:41;;;;;;;9.20;6.75;;;18.50;99.90;;;;;;5071617;28;20032;-60
2023/08/22 00:50:08;;;;;;;10.65;7.45;;;18.40;99.90;;;;;;5059853;28;20376;-60
2023/08/22 00:52:34;;;;;;;10.10;7.60;;;18.50;99.90;;;;;;5069932;28;20120;-60
2023/08/22 00:55:00;;;;;;;11.23;6.70;;;18.50;99.90;;;;;;5075380;28;20157;-60
2023/08/22 00:57:26;;;;;;;9.32;7.40;;;18.50;99.90;;;;;;5075459;28;20074;-60
2023/08/22 00:59:53;;;;;;;9.10;6.85;;;18.40;99.90;;;;;;5075292;28;20036;-60
2023/08/22 01:02:19;;;;;;;7.82;6.43;;;18.40;99.90;;;;;;5070692;28;20086;-60
2023/08/22 01:04:44;;;;;;;10.27;7.47;;;18.40;99.90;;;;;;5075572;28;20044;-60
2023/08/22 01:07:36;;;;;;;11.82;8.30;;;18.40;99.90;;;;;;5075250;28;20035;-60
2023/08/22 01:10:15;;;;;;;10.15;7.45;;;18.40;99.90;;;;;;5075351;28;20041;-60
2023/08/22 01:12:53;;;;;;;11.70;8.45;;;18.40;99.90;;;;;;5064726;28;20044;-60
2023/08/22 01:15:28;;;;;;;11.65;7.68;;;18.30;99.90;;;;;;5074970;28;20041;-60
2023/08/22 01:17:56;;;;;;;11.75;8.38;;;18.40;99.90;;;;;;5075061;28;20813;-61
2023/08/22 01:20:24;;;;;;;13.40;8.23;;;18.30;99.90;;;;;;5074981;28;20041;-61
2023/08/22 01:22:50;;;;;;;16.17;9.18;;;18.30;99.90;;;;;;5074732;28;20040;-61
2023/08/22 01:25:16;;;;;;;25.40;10.63;;;18.20;99.90;;;;;;5075107;28;20044;-60
2023/08/22 01:27:53;;;;;;;13.25;8.05;;;18.20;99.90;;;;;;5074816;28;20058;-60
2023/08/22 01:30:33;;;;;;;12.85;8.88;;;18.20;99.90;;;;;;5074579;28;20044;-60
2023/08/22 01:33:07;;;;;;;12.73;8.93;;;18.20;99.90;;;;;;5074752;28;20040;-60
2023/08/22 01:35:34;;;;;;;12.40;8.68;;;18.00;99.90;;;;;;5074560;28;20068;-61
2023/08/22 01:38:01;;;;;;;13.80;8.57;;;18.00;99.90;;;;;;5064394;28;20052;-61
2023/08/22 01:40:28;;;;;;;14.38;9.10;;;18.10;99.90;;;;;;5074278;28;20040;-61
2023/08/22 01:42:56;;;;;;;30.33;8.83;;;18.10;99.90;;;;;;5074396;28;20044;-61
2023/08/22 01:45:21;;;;;;;12.68;8.43;;;18.10;99.90;;;;;;5074482;28;20103;-61
2023/08/22 01:47:47;;;;;;;13.55;9.88;;;18.10;99.90;;;;;;5074482;28;20111;-61
2023/08/22 01:50:12;;;;;;;10.63;9.35;;;18.00;99.90;;;;;;5074655;28;20066;-61
2023/08/22 01:52:38;;;;;;;17.23;9.43;;;18.00;99.90;;;;;;5074210;28;20032;-61
2023/08/22 01:55:04;;;;;;;15.82;9.95;;;18.00;99.90;;;;;;5074212;28;20398;-61
2023/08/22 01:57:30;;;;;;;11.27;8.70;;;18.00;99.90;;;;;;5073913;28;20044;-61
2023/08/22 01:59:55;;;;;;;18.70;10.15;;;18.00;99.90;;;;;;5074246;28;20043;-61
2023/08/22 02:02:21;;;;;;;17.35;9.88;;;17.90;99.90;;;;;;5074429;28;20051;-60
2023/08/22 02:04:46;;;;;;;14.27;8.93;;;17.80;99.90;;;;;;5072712;28;20131;-60
2023/08/22 02:07:12;;;;;;;15.77;9.75;;;17.90;99.90;;;;;;5073945;28;20506;-60
2023/08/22 02:09:38;;;;;;;16.20;10.15;;;17.80;99.90;;;;;;5073708;28;20037;-61
2023/08/22 02:12:03;;;;;;;15.95;10.57;;;17.80;99.90;;;;;;5073871;28;20048;-61
2023/08/22 02:14:29;;;;;;;14.85;10.32;;;17.70;99.90;;;;;;5073776;28;20047;-61
2023/08/22 02:16:55;;;;;;;12.00;8.90;;;17.80;99.90;;;;;;5073874;28;20529;-61
2023/08/22 02:19:21;;;;;;;17.13;10.73;;;17.70;99.90;;;;;;5073882;28;20533;-61
2023/08/22 02:21:46;;;;;;;12.50;9.20;;;17.80;99.90;;;;;;5073218;28;20506;-61
2023/08/22 02:24:12;;;;;;;60.30;11.43;;;17.80;99.90;;;;;;5073715;28;20048;-61
2023/08/22 02:26:41;;;;;;;16.08;10.00;;;17.70;99.90;;;;;;5073395;28;20128;-60
2023/08/22 02:29:06;;;;;;;13.63;10.10;;;17.80;99.90;;;;;;5074001;28;20048;-60
2023/08/22 02:31:32;;;;;;;23.38;10.73;;;17.70;99.90;;;;;;5073899;28;20051;-61
2023/08/22 02:33:58;;;;;;;15.10;9.57;;;17.50;99.90;;;;;;5073840;28;20052;-61
2023/08/22 02:36:23;;;;;;;28.80;10.13;;;17.60;99.90;;;;;;5073656;28;20048;-61
2023/08/22 02:38:49;;;;;;;13.13;9.38;;;17.50;99.90;;;;;;5073343;28;20040;-61
2023/08/22 02:41:15;;;;;;;12.25;9.23;;;17.50;99.90;;;;;;5072034;28;20063;-61
2023/08/22 02:43:40;;;;;;;12.23;9.50;;;17.50;99.90;;;;;;5073331;28;20645;-61
2023/08/22 02:46:06;;;;;;;13.50;9.32;;;17.40;99.90;;;;;;5073668;28;20942;-61
2023/08/22 02:48:31;;;;;;;12.40;9.88;;;17.50;99.90;;;;;;5073125;28;20048;-60
2023/08/22 02:50:57;;;;;;;13.50;9.07;;;17.40;99.90;;;;;;5073400;28;20094;-61
2023/08/22 02:53:23;;;;;;;13.73;9.80;;;17.40;99.90;;;;;;5073840;28;20048;-60
2023/08/22 02:55:48;;;;;;;12.10;9.80;;;17.40;99.90;;;;;;5073870;28;20453;-60
2023/08/22 02:58:14;;;;;;;16.90;10.20;;;17.30;99.90;;;;;;5074037;28;20503;-60
2023/08/22 03:00:40;;;;;;;12.88;9.45;;;17.20;99.90;;;;;;5073775;28;20482;-60
2023/08/22 03:03:05;;;;;;;9.77;8.43;;;17.20;99.90;;;;;;5073714;28;20028;-60
2023/08/22 03:05:31;;;;;;;14.07;9.18;;;17.20;99.90;;;;;;5073336;28;20393;-60
2023/08/22 03:07:56;;;;;;;13.05;8.65;;;17.20;99.90;;;;;;5073400;28;20439;-60
2023/08/22 03:10:22;;;;;;;13.82;10.48;;;17.20;99.90;;;;;;5073455;28;20040;-60
2023/08/22 03:12:50;;;;;;;12.18;8.63;;;17.20;99.90;;;;;;5073371;28;20090;-60
2023/08/22 03:15:16;;;;;;;9.40;7.60;;;17.10;99.90;;;;;;5072775;28;20044;-60
2023/08/22 03:17:41;;;;;;;10.20;7.43;;;17.10;99.90;;;;;;5073280;28;20037;-60
2023/08/22 03:20:08;;;;;;;9.13;7.47;;;17.20;99.90;;;;;;5073434;28;20041;-61
2023/08/22 03:22:33;;;;;;;8.73;7.50;;;17.20;99.90;;;;;;5073119;28;20044;-60
2023/08/22 03:24:59;;;;;;;8.63;7.68;;;17.20;99.90;;;;;;5073417;28;20036;-60
2023/08/22 03:27:24;;;;;;;11.48;8.40;;;17.30;99.90;;;;;;5073274;28;20449;-60
2023/08/22 03:29:50;;;;;;;8.05;7.22;;;17.20;99.90;;;;;;5073425;28;20059;-61
2023/08/22 03:32:16;;;;;;;7.75;6.95;;;17.10;99.90;;;;;;5073367;28;20104;-60
2023/08/22 03:34:41;;;;;;;8.93;6.05;;;17.20;99.90;;;;;;5073237;28;20062;-60
2023/08/22 03:37:07;;;;;;;7.28;6.18;;;17.10;99.90;;;;;;5071664;28;20102;-60
2023/08/22 03:39:33;;;;;;;9.48;6.05;;;17.20;99.90;;;;;;5072799;28;20036;-60
2023/08/22 03:41:58;;;;;;;8.00;6.20;;;17.10;99.90;;;;;;5073047;28;20414;-61
2023/08/22 03:44:24;;;;;;;5.97;5.45;;;17.10;99.90;;;;;;5073301;28;20047;-61
2023/08/22 03:46:49;;;;;;;8.75;6.43;;;17.10;99.90;;;;;;5072935;28;20040;-60
2023/08/22 03:49:16;;;;;;;7.18;6.47;;;16.90;99.90;;;;;;5073019;28;20032;-60
2023/08/22 03:51:42;;;;;;;11.98;6.05;;;16.90;99.90;;;;;;5073059;28;20093;-60
2023/08/22 03:54:08;;;;;;;7.22;6.07;;;16.80;99.90;;;;;;5072651;28;20487;-60
2023/08/22 03:56:33;;;;;;;8.48;6.38;;;16.80;99.90;;;;;;5072950;28;20399;-60
2023/08/22 03:58:59;;;;;;;11.63;6.22;;;16.80;99.90;;;;;;5072971;28;20072;-60
2023/08/22 04:01:25;;;;;;;8.70;6.57;;;16.70;99.90;;;;;;5072989;28;20060;-60
2023/08/22 04:03:51;;;;;;;7.93;5.90;;;16.70;99.90;;;;;;5073073;28;20032;-61
2023/08/22 04:06:17;;;;;;;6.13;5.53;;;16.80;99.90;;;;;;5072801;28;20032;-60
2023/08/22 04:08:42;;;;;;;6.82;5.28;;;16.80;99.90;;;;;;5073155;28;20044;-60
2023/08/22 04:11:08;;;;;;;8.70;5.65;;;16.80;99.90;;;;;;5072542;28;20047;-60
2023/08/22 04:13:33;;;;;;;7.03;5.53;;;16.70;99.90;;;;;;5062757;28;20043;-60
2023/08/22 04:15:59;;;;;;;7.47;5.53;;;16.60;99.90;;;;;;5069450;28;20134;-60
2023/08/22 04:18:25;;;;;;;7.88;5.30;;;16.60;99.90;;;;;;5073067;28;20037;-61
2023/08/22 04:20:50;;;;;;;22.80;5.00;;;16.50;99.90;;;;;;5072534;28;20037;-61
2023/08/22 04:23:16;;;;;;;4.85;3.70;;;16.50;99.90;;;;;;5071611;28;20025;-61
2023/08/22 04:25:42;;;;;;;13.70;4.05;;;16.60;99.90;;;;;;5071722;28;20032;-59
2023/08/22 04:28:07;;;;;;;4.13;3.72;;;16.50;99.90;;;;;;5073709;28;20050;-60
2023/08/22 04:30:33;;;;;;;5.13;3.88;;;16.40;99.90;;;;;;5076674;28;20047;-60
2023/08/22 04:32:59;;;;;;;6.50;4.93;;;16.40;99.90;;;;;;5076263;28;20116;-60
2023/08/22 04:35:24;;;;;;;7.90;4.60;;;16.40;99.90;;;;;;5076585;28;20036;-59
2023/08/22 04:37:50;;;;;;;10.68;5.30;;;16.30;99.90;;;;;;5070643;28;20037;-59
2023/08/22 04:40:16;;;;;;;7.57;5.70;;;16.30;99.90;;;;;;5075122;28;20456;-60
2023/08/22 04:42:42;;;;;;;7.50;5.22;;;16.30;99.90;;;;;;5068827;28;20063;-60
2023/08/22 04:45:08;;;;;;;7.35;5.35;;;16.30;99.90;;;;;;5076152;28;20082;-60
2023/08/22 04:47:33;;;;;;;8.90;5.43;;;16.30;99.90;;;;;;5076353;28;20024;-59
2023/08/22 04:49:59;;;;;;;6.63;4.65;;;16.20;99.90;;;;;;5076410;28;20070;-59
2023/08/22 04:52:25;;;;;;;8.23;5.10;;;16.40;99.90;;;;;;5074497;28;20032;-60
2023/08/22 04:54:51;;;;;;;8.60;5.50;;;16.40;99.90;;;;;;5066377;28;20082;-60
2023/08/22 04:57:16;;;;;;;6.47;4.68;;;16.40;99.90;;;;;;5075984;28;20033;-60
2023/08/22 04:59:42;;;;;;;8.35;5.25;;;16.40;99.90;;;;;;5074533;28;20048;-60
2023/08/22 05:02:07;;;;;;;6.35;4.97;;;16.40;99.90;;;;;;5075998;28;20065;-60
2023/08/22 05:04:33;;;;;;;6.32;4.78;;;16.40;99.90;;;;;;5074640;28;20542;-60
2023/08/22 05:06:59;;;;;;;8.00;5.50;;;16.40;99.90;;;;;;5076065;28;20040;-60
2023/08/22 05:09:24;;;;;;;7.03;5.03;;;16.50;99.90;;;;;;5076135;28;20045;-60
2023/08/22 05:11:50;;;;;;;7.13;5.15;;;16.50;99.90;;;;;;5076158;28;20385;-60
2023/08/22 05:14:16;;;;;;;6.72;5.88;;;16.50;99.90;;;;;;5075947;28;20105;-59
2023/08/22 05:16:43;;;;;;;7.18;5.68;;;16.60;99.90;;;;;;5061888;28;20045;-59
2023/08/22 05:19:09;;;;;;;7.05;6.10;;;16.60;99.90;;;;;;5075724;28;20079;-60
2023/08/22 05:21:34;;;;;;;13.48;6.30;;;16.60;99.90;;;;;;5075702;28;20040;-60
2023/08/22 05:24:00;;;;;;;8.25;6.25;;;16.70;99.90;;;;;;5067405;28;20413;-60
2023/08/22 05:26:26;;;;;;;7.07;5.93;;;16.80;99.90;;;;;;5075418;28;20102;-60
2023/08/22 05:28:51;;;;;;;7.78;5.75;;;16.80;99.90;;;;;;5075278;28;20057;-60
2023/08/22 05:31:24;;;;;;;7.55;5.40;;;16.90;99.90;;;;;;5075624;28;20144;-60
2023/08/22 05:33:53;;;;;;;8.40;5.25;;;17.00;99.90;;;;;;5074653;28;20376;-59
2023/08/22 05:36:19;;;;;;;8.95;5.07;;;17.00;99.90;;;;;;5067093;28;20478;-59
2023/08/22 05:38:44;;;;;;;7.18;5.22;;;17.10;99.90;;;;;;5074797;28;20078;-60
2023/08/22 05:41:10;;;;;;;10.80;5.70;;;17.20;99.90;;;;;;5075229;28;20041;-59
2023/08/22 05:43:36;;;;;;;7.80;5.88;;;17.30;99.90;;;;;;5075256;28;20037;-59
2023/08/22 05:46:02;;;;;;;8.80;6.45;;;17.30;99.90;;;;;;5075113;28;20489;-59
2023/08/22 05:48:28;;;;;;;8.88;6.32;;;17.30;99.90;;;;;;5074913;28;20044;-59
2023/08/22 05:50:54;;;;;;;9.82;7.10;;;17.40;99.90;;;;;;5074974;28;20051;-58
2023/08/22 05:53:20;;;;;;;14.20;6.82;;;17.50;99.90;;;;;;5062894;28;20032;-59
2023/08/22 05:55:45;;;;;;;10.82;6.72;;;17.60;99.90;;;;;;5072920;28;20068;-59
2023/08/22 05:58:11;;;;;;;12.57;7.72;;;17.70;99.90;;;;;;5074747;28;20150;-59
2023/08/22 06:00:37;;;;;;;10.45;7.30;;;17.60;99.90;;;;;;5074703;28;20505;-59
2023/08/22 06:03:03;;;;;;;9.98;7.43;;;17.70;99.90;;;;;;5075033;28;20028;-59
2023/08/22 06:05:28;;;;;;;9.85;6.70;;;17.80;99.90;;;;;;5074569;28;20364;-59
2023/08/22 06:07:54;;;;;;;9.43;7.15;;;17.80;99.90;;;;;;5073283;28;20067;-58
2023/08/22 06:10:20;;;;;;;10.18;6.97;;;18.00;99.90;;;;;;5074274;28;20479;-59
2023/08/22 06:12:45;;;;;;;10.52;6.10;;;18.00;99.90;;;;;;5074303;28;20032;-59
2023/08/22 06:15:11;;;;;;;11.15;7.20;;;18.00;99.90;;;;;;5074442;28;20445;-59
2023/08/22 06:17:37;;;;;;;10.77;6.68;;;18.10;99.90;;;;;;5072710;28;20490;-59
2023/08/22 06:20:04;;;;;;;10.15;6.35;;;18.20;99.90;;;;;;5073966;28;20079;-59
2023/08/22 06:22:30;;;;;;;12.13;7.93;;;18.40;99.90;;;;;;5074361;28;20040;-59
2023/08/22 06:24:55;;;;;;;11.80;7.43;;;18.50;99.90;;;;;;5074331;28;20037;-59
2023/08/22 06:27:21;;;;;;;13.32;7.82;;;18.50;99.90;;;;;;5074004;28;20383;-58
2023/08/22 06:29:47;;;;;;;12.30;7.72;;;18.50;99.90;;;;;;5074024;28;20039;-59
2023/08/22 06:32:13;;;;;;;13.80;7.93;;;18.50;99.90;;;;;;5074153;28;20048;-59
2023/08/22 06:34:39;;;;;;;9.57;7.45;;;18.60;99.90;;;;;;5074040;28;20079;-59
2023/08/22 06:37:06;;;;;;;11.88;7.15;;;18.70;99.90;;;;;;5074266;28;20127;-58
2023/08/22 06:39:32;;;;;;;16.23;8.02;;;19.00;99.90;;;;;;5074150;28;20403;-59
2023/08/22 06:41:58;;;;;;;13.73;7.80;;;19.20;99.90;;;;;;5074130;28;20033;-59
2023/08/22 06:44:23;;;;;;;10.80;7.78;;;19.30;99.90;;;;;;5073877;28;20479;-59
2023/08/22 06:46:49;;;;;;;18.52;11.18;;;19.50;99.90;;;;;;5073543;28;20036;-59
2023/08/22 06:49:14;;;;;;;24.05;14.00;;;19.70;99.90;;;;;;5073480;28;20532;-59
2023/08/22 06:51:40;;;;;;;16.02;9.38;;;20.00;99.90;;;;;;5072814;28;20124;-58
2023/08/22 06:54:06;;;;;;;16.90;11.45;;;20.00;99.90;;;;;;5073394;28;20036;-59
2023/08/22 06:56:31;;;;;;;18.27;11.05;;;20.00;99.90;;;;;;5073184;28;20044;-59
2023/08/22 06:58:57;;;;;;;21.77;13.75;;;20.00;99.90;;;;;;5073716;28;20048;-58
2023/08/22 07:01:23;;;;;;;18.17;11.43;;;20.00;99.90;;;;;;5073615;28;20107;-59
2023/08/22 07:03:48;;;;;;;23.17;14.07;;;20.10;99.90;;;;;;5073550;28;20494;-58
2023/08/22 07:06:14;;;;;;;19.23;11.82;;;20.30;99.90;;;;;;5073283;28;20075;-59
2023/08/22 07:08:40;;;;;;;13.73;9.25;;;20.50;99.90;;;;;;5073405;28;20043;-59
2023/08/22 07:11:05;;;;;;;10.95;6.85;;;20.70;99.90;;;;;;5048470;28;20054;-59
2023/08/22 07:13:33;;;;;;;13.02;6.57;;;20.90;99.90;;;;;;5053303;28;20060;-59
2023/08/22 07:15:58;;;;;;;13.68;6.78;;;21.30;99.90;;;;;;5053115;28;20108;-58
2023/08/22 07:18:26;;;;;;;11.27;6.25;;;21.40;99.90;;;;;;5052949;28;20535;-58
2023/08/22 07:20:52;;;;;;;10.15;5.60;;;21.50;99.90;;;;;;5053271;28;20069;-58
2023/08/22 07:23:21;;;;;;;9.38;5.25;;;21.60;99.90;;;;;;5052803;28;20587;-58
2023/08/22 07:25:51;;;;;;;7.78;4.70;;;21.90;99.90;;;;;;5053065;28;20083;-59
2023/08/22 07:28:18;;;;;;;9.32;5.40;;;22.00;99.90;;;;;;5051466;28;20074;-59
2023/08/22 07:30:47;;;;;;;10.82;5.40;;;22.20;99.90;;;;;;5052719;28;20045;-59
2023/08/22 07:33:13;;;;;;;8.82;5.55;;;22.20;99.90;;;;;;5052776;28;20395;-58
2023/08/22 07:35:39;;;;;;;10.43;5.50;;;22.20;99.90;;;;;;5052653;28;20056;-58
2023/08/22 07:38:05;;;;;;;9.38;4.43;;;22.20;99.90;;;;;;5052450;28;20090;-59
2023/08/22 07:40:32;;;;;;;10.18;4.53;;;22.20;99.90;;;;;;5052761;28;20121;-58
2023/08/22 07:42:59;;;;;;;14.95;5.90;;;22.00;99.90;;;;;;5067617;28;20043;-59
2023/08/22 07:45:25;;;;;;;12.00;4.88;;;22.00;99.90;;;;;;5072512;28;20047;-58
2023/08/22 07:47:51;;;;;;;9.82;5.22;;;22.10;99.90;;;;;;5073155;28;20029;-58
2023/08/22 07:50:17;;;;;;;11.68;5.35;;;22.10;99.90;;;;;;5072679;28;20047;-58
2023/08/22 07:52:43;;;;;;;14.70;5.40;;;22.20;99.90;;;;;;5073104;28;20048;-60
2023/08/22 07:55:09;;;;;;;13.27;5.65;;;22.50;99.90;;;;;;5073121;28;20036;-59
2023/08/22 07:57:34;;;;;;;18.30;5.28;;;22.70;99.90;;;;;;5072475;28;20474;-59
2023/08/22 08:00:00;;;;;;;10.35;4.45;;;23.10;99.90;;;;;;5071702;28;20067;-59
2023/08/22 08:02:27;;;;;;;13.40;4.45;;;24.30;99.90;;;;;;5069560;28;20036;-59
2023/08/22 08:04:53;;;;;;;10.45;5.00;;;25.50;99.90;;;;;;5067404;28;20112;-58
2023/08/22 08:07:19;;;;;;;6.43;4.10;;;25.70;99.90;;;;;;5071847;28;20132;-59
2023/08/22 08:09:45;;;;;;;9.57;4.82;;;26.40;99.90;;;;;;5071690;28;20032;-59
2023/08/22 08:12:11;;;;;;;9.40;4.28;;;27.50;99.90;;;;;;5072080;28;20123;-59
2023/08/22 08:14:37;;;;;;;11.88;4.28;;;27.80;99.90;;;;;;5071805;28;20083;-59
2023/08/22 08:17:03;;;;;;;6.10;3.38;;;28.50;99.90;;;;;;5071798;28;20064;-59
2023/08/22 08:19:28;;;;;;;5.57;3.38;;;28.80;99.90;;;;;;5070316;28;20123;-59
2023/08/22 08:21:54;;;;;;;5.30;3.05;;;28.80;99.90;;;;;;5069511;28;20075;-60
2023/08/22 08:24:19;;;;;;;4.28;2.42;;;29.50;99.90;;;;;;5060310;28;20035;-59
2023/08/22 08:26:45;;;;;;;5.05;2.78;;;29.80;99.90;;;;;;5071335;28;20433;-60
2023/08/22 08:29:11;;;;;;;5.40;2.70;;;30.40;99.90;;;;;;5060039;28;20049;-59
2023/08/22 08:31:36;;;;;;;5.75;2.60;;;31.00;99.90;;;;;;5071743;28;20154;-59
2023/08/22 08:34:02;;;;;;;7.15;2.65;;;31.60;99.90;;;;;;5071408;28;20036;-59
2023/08/22 08:36:27;;;;;;;4.07;2.53;;;32.20;99.90;;;;;;5071922;28;20075;-59
2023/08/22 08:38:53;;;;;;;6.38;2.63;;;32.80;99.90;;;;;;5071745;28;20105;-59
2023/08/22 08:41:20;;;;;;;4.28;2.28;;;33.40;99.90;;;;;;5071602;28;20067;-61
2023/08/22 08:43:47;;;;;;;7.50;2.88;;;33.60;99.60;;;;;;5071604;28;20041;-59
2023/08/22 08:46:13;;;;;;;5.07;2.20;;;34.10;99.60;;;;;;5071570;28;20059;-59
2023/08/22 08:48:41;;;;;;;5.18;2.55;;;34.10;98.80;;;;;;5071269;28;20040;-60
2023/08/22 08:51:07;;;;;;;5.15;2.63;;;32.40;98.50;;;;;;5071705;28;20406;-59
2023/08/22 08:53:37;;;;;;;3.75;1.73;;;33.60;99.00;;;;;;5069284;28;20438;-59
2023/08/22 08:56:04;;;;;;;4.35;2.33;;;34.30;97.90;;;;;;5071926;28;20040;-59
2023/08/22 08:58:30;;;;;;;4.75;1.80;;;34.00;98.30;;;;;;5059740;28;20052;-58
2023/08/22 09:00:59;;;;;;;4.93;1.85;;;34.70;97.90;;;;;;5069458;28;20394;-59
2023/08/22 09:03:24;;;;;;;4.70;2.13;;;33.90;97.60;;;;;;5071415;28;20400;-59
2023/08/22 09:05:50;;;;;;;3.83;1.60;;;32.90;98.40;;;;;;5070276;28;20653;-59
2023/08/22 09:08:17;;;;;;;3.75;1.75;;;33.40;97.80;;;;;;5071360;28;20029;-59
2023/08/22 09:10:51;;;;;;;2.50;1.63;;;33.70;97.90;;;;;;5071132;28;20402;-59
2023/08/22 09:13:24;;;;;;;2.08;1.50;;;33.00;97.80;;;;;;5071277;28;20036;-59
2023/08/22 09:15:50;;;;;;;3.10;1.70;;;32.30;98.50;;;;;;5074999;28;20041;-59
2023/08/22 09:18:16;;;;;;;4.30;2.30;;;31.50;98.80;;;;;;5074754;28;20052;-59
2023/08/22 09:20:45;;;;;;;7.88;2.40;;;30.80;99.20;;;;;;5073607;28;20044;-59
2023/08/22 09:23:27;;;;;;;6.05;1.83;;;30.40;99.70;;;;;;5063590;28;20108;-59
2023/08/22 09:25:53;;;;;;;5.70;1.77;;;30.20;99.50;;;;;;5075014;28;20066;-60
2023/08/22 09:28:19;;;;;;;4.65;1.88;;;30.00;99.90;;;;;;5074583;28;20132;-59
2023/08/22 09:30:53;;;;;;;4.85;1.60;;;29.90;99.90;;;;;;5074876;28;20116;-59
2023/08/22 09:33:19;;;;;;;6.30;1.95;;;29.80;99.90;;;;;;5074510;28;20098;-59
2023/08/22 09:35:45;;;;;;;4.55;1.98;;;31.70;99.70;;;;;;5074701;28;20044;-59
2023/08/22 09:38:11;;;;;;;4.03;2.13;;;32.20;99.10;;;;;;5074855;28;20045;-59
2023/08/22 09:40:50;;;;;;;5.00;2.55;;;32.90;98.50;;;;;;5074099;28;20043;-59
2023/08/22 09:43:18;;;;;;;4.55;2.40;;;33.30;97.80;;;;;;5072990;28;20033;-58
2023/08/22 09:45:44;;;;;;;4.53;2.42;;;33.90;97.90;;;;;;5074037;28;20532;-58
2023/08/22 09:48:16;;;;;;;6.57;2.95;;;34.10;97.90;;;;;;5074246;28;20435;-59
2023/08/22 09:50:44;;;;;;;7.45;3.03;;;33.10;98.00;;;;;;5073997;28;20078;-59
2023/08/22 09:53:11;;;;;;;5.18;2.78;;;32.60;98.00;;;;;;5071629;28;20483;-59
2023/08/22 09:55:37;;;;;;;6.35;3.80;;;31.80;98.90;;;;;;5074206;28;20044;-59
2023/08/22 09:58:04;;;;;;;8.40;3.40;;;31.10;99.50;;;;;;5069992;28;20499;-58
2023/08/22 10:00:31;;;;;;;5.72;2.83;;;30.60;99.90;;;;;;5074083;28;20040;-59
2023/08/22 10:02:58;;;;;;;5.35;2.53;;;31.00;99.90;;;;;;5073945;28;20033;-58
2023/08/22 10:05:24;;;;;;;5.65;3.13;;;32.40;99.80;;;;;;5074178;28;20197;-58
2023/08/22 10:07:50;;;;;;;5.00;3.03;;;33.10;99.10;;;;;;5072375;28;20033;-59
2023/08/22 10:10:16;;;;;;;4.95;2.53;;;33.50;98.70;;;;;;5071786;28;20043;-59
2023/08/22 10:12:42;;;;;;;6.13;2.78;;;33.80;98.30;;;;;;5074356;28;20033;-59
2023/08/22 10:15:10;;;;;;;6.10;3.25;;;33.50;98.60;;;;;;5072998;28;20052;-59
2023/08/22 10:17:39;;;;;;;4.07;2.60;;;33.10;98.90;;;;;;5074038;28;20044;-59
2023/08/22 10:20:06;;;;;;;6.47;2.47;;;32.50;98.50;;;;;;5064245;28;20037;-59
2023/08/22 10:22:33;;;;;;;4.25;2.85;;;32.90;99.30;;;;;;5073414;28;20037;-59
2023/08/22 10:25:06;;;;;;;5.53;2.55;;;34.00;98.60;;;;;;5066722;28;20051;-60
2023/08/22 10:27:35;;;;;;;4.20;2.78;;;34.30;97.90;;;;;;5046697;28;20406;-59
2023/08/22 10:30:12;;;;;;;5.35;2.60;;;34.20;97.70;;;;;;5073572;28;20111;-59
2023/08/22 10:32:38;;;;;;;5.45;2.80;;;33.80;97.30;;;;;;5046702;28;20045;-59
2023/08/22 10:35:21;;;;;;;4.10;2.78;;;33.60;98.30;;;;;;5073340;28;20055;-59
2023/08/22 10:37:48;;;;;;;8.20;2.53;;;33.90;98.10;;;;;;5073477;28;20040;-59
2023/08/22 10:40:35;;;;;;;9.35;3.00;;;34.50;97.70;;;;;;5073287;28;20051;-59
2023/08/22 10:43:12;;;;;;;6.10;2.88;;;34.00;97.30;;;;;;5073287;28;20049;-60
2023/08/22 10:45:49;;;;;;;4.22;2.28;;;34.40;97.20;;;;;;5073363;28;20040;-60
2023/08/22 10:48:20;;;;;;;5.72;2.00;;;34.50;96.80;;;;;;5073489;28;20093;-59
2023/08/22 10:50:48;;;;;;;5.82;2.20;;;35.20;97.30;;;;;;5068629;28;20040;-59
2023/08/22 10:53:22;;;;;;;7.53;3.08;;;35.40;96.90;;;;;;5063944;28;20042;-59
2023/08/22 10:55:49;;;;;;;5.95;2.47;;;35.40;95.90;;;;;;5071660;28;20041;-59
2023/08/22 10:58:35;;;;;;;6.10;2.30;;;35.90;96.80;;;;;;5068020;28;20054;-60
2023/08/22 11:01:05;;;;;;;5.53;2.28;;;35.90;94.50;;;;;;5049430;28;20041;-60
2023/08/22 11:03:31;;;;;;;4.82;2.70;;;36.40;95.70;;;;;;5072832;28;20036;-60
2023/08/22 11:05:57;;;;;;;4.55;1.95;;;36.80;95.70;;;;;;5072847;28;20487;-59
2023/08/22 11:08:22;;;;;;;8.05;2.10;;;37.20;96.00;;;;;;5072816;28;20036;-59
2023/08/22 11:10:49;;;;;;;4.45;2.20;;;37.30;95.20;;;;;;5059641;28;20052;-60
2023/08/22 11:13:15;;;;;;;4.47;2.05;;;37.10;94.70;;;;;;5072964;28;20043;-60
2023/08/22 11:15:41;;;;;;;3.92;1.95;;;37.40;94.70;;;;;;5072483;28;20036;-59
2023/08/22 11:18:07;;;;;;;5.63;1.63;;;37.10;94.90;;;;;;5072540;28;20045;-60
2023/08/22 11:20:33;;;;;;;3.78;1.70;;;37.30;94.60;;;;;;5072153;28;20040;-59
2023/08/22 11:23:00;;;;;;;4.32;1.60;;;37.10;94.30;;;;;;5066589;28;20058;-60
2023/08/22 11:25:26;;;;;;;4.97;1.40;;;36.80;93.80;;;;;;5072539;28;20036;-59
2023/08/22 11:27:53;;;;;;;7.45;1.73;;;36.60;94.20;;;;;;5064040;28;20101;-60
2023/08/22 11:30:19;;;;;;;3.47;1.30;;;35.50;94.00;;;;;;5072319;28;20437;-60
2023/08/22 11:32:45;;;;;;;2.35;1.10;;;35.60;94.60;;;;;;5070987;28;20028;-60
2023/08/22 11:35:11;;;;;;;4.80;1.33;;;35.80;94.30;;;;;;5072251;28;20032;-61
2023/08/22 11:37:41;;;;;;;3.63;1.20;;;35.70;94.50;;;;;;5071746;28;20036;-59
2023/08/22 11:40:09;;;;;;;4.18;1.55;;;36.00;94.50;;;;;;5072210;28;20037;-61
2023/08/22 11:42:36;;;;;;;3.47;1.55;;;35.50;94.30;;;;;;5067461;28;20043;-60
2023/08/22 11:45:05;;;;;;;5.77;1.60;;;35.60;94.70;;;;;;5070820;28;20047;-59
2023/08/22 11:47:42;;;;;;;3.05;1.25;;;35.40;94.40;;;;;;5070914;28;20319;-60
2023/08/22 11:50:14;;;;;;;4.03;1.50;;;34.80;94.50;;;;;;5071014;28;20090;-60
2023/08/22 11:52:41;;;;;;;2.45;1.17;;;34.60;94.60;;;;;;5063489;28;20048;-60
2023/08/22 11:55:09;;;;;;;1.75;0.80;;;34.80;94.90;;;;;;5070673;28;20044;-59
2023/08/22 11:57:38;;;;;;;3.42;0.93;;;34.30;94.70;;;;;;5066025;28;20033;-59
2023/08/22 12:00:06;;;;;;;3.17;1.33;;;34.30;94.50;;;;;;5070716;28;20487;-59
2023/08/22 12:02:33;;;;;;;3.28;2.03;;;34.10;95.10;;;;;;5071992;28;20111;-61
2023/08/22 12:04:58;;;;;;;2.65;1.20;;;34.00;95.10;;;;;;5071925;28;20029;-61
2023/08/22 12:07:24;;;;;;;1.92;1.20;;;34.10;94.90;;;;;;5071738;28;20566;-60
2023/08/22 12:10:08;;;;;;;4.15;1.00;;;33.80;94.80;;;;;;5071943;28;20033;-62
2023/08/22 12:12:34;;;;;;;2.35;0.98;;;33.90;94.30;;;;;;5071862;28;20049;-61
2023/08/22 12:15:00;;;;;;;4.30;1.27;;;33.90;94.40;;;;;;5072044;28;20097;-60
2023/08/22 12:17:26;;;;;;;3.83;1.08;;;33.60;94.40;;;;;;5071828;28;20044;-60
2023/08/22 12:19:52;;;;;;;2.70;0.80;;;33.60;94.90;;;;;;5065928;28;20124;-60
2023/08/22 12:22:18;;;;;;;2.25;0.93;;;33.50;94.10;;;;;;5053889;28;20033;-61
2023/08/22 12:24:44;;;;;;;2.95;1.25;;;33.20;94.50;;;;;;5069295;28;20099;-60
2023/08/22 12:27:11;;;;;;;2.67;1.00;;;32.80;95.00;;;;;;5063636;28;20057;-60
2023/08/22 12:29:38;;;;;;;3.67;1.20;;;32.90;95.40;;;;;;5067694;28;20116;-60
2023/08/22 12:32:04;;;;;;;3.07;1.53;;;32.80;95.30;;;;;;5071962;28;20090;-60
2023/08/22 12:34:30;;;;;;;6.15;1.38;;;32.80;95.50;;;;;;5071539;28;20296;-60
2023/08/22 12:36:56;;;;;;;2.97;1.42;;;32.70;95.00;;;;;;5071579;28;20474;-60
2023/08/22 12:39:22;;;;;;;2.90;1.15;;;32.30;95.00;;;;;;5071668;28;20051;-59
2023/08/22 12:41:47;;;;;;;4.30;1.52;;;32.30;95.70;;;;;;5068997;28;20047;-59